createdAt,value
2017-12-16T00:01:36.518Z,94.00
2017-12-16T00:04:05.651Z,94.50
2017-12-16T00:06:34.173Z,94.10
2017-12-16T00:09:02.589Z,94.00
2017-12-16T00:11:31.698Z,94.10
2017-12-16T00:14:00.026Z,94.00
2017-12-16T00:16:28.483Z,94.00
2017-12-16T00:18:57.045Z,94.20
2017-12-16T00:21:25.524Z,94.10
2017-12-16T00:23:53.856Z,94.40
2017-12-16T00:26:22.546Z,94.40
2017-12-16T00:28:50.948Z,94.50
2017-12-16T00:31:19.292Z,94.50
2017-12-16T00:33:47.746Z,94.50
2017-12-16T00:36:16.095Z,94.60
2017-12-16T00:38:44.452Z,94.80
2017-12-16T00:41:13.609Z,94.80
2017-12-16T00:43:41.975Z,94.80
2017-12-16T00:46:10.362Z,94.70
2017-12-16T00:48:38.691Z,94.70
2017-12-16T00:51:07.819Z,94.90
2017-12-16T00:53:36.238Z,94.60
2017-12-16T00:56:04.582Z,94.50
2017-12-16T00:58:32.924Z,94.50
2017-12-16T01:01:02.305Z,94.50
2017-12-16T01:03:30.644Z,94.50
2017-12-16T01:05:58.970Z,94.60
2017-12-16T01:08:27.322Z,94.60
2017-12-16T01:10:55.670Z,94.70
2017-12-16T01:13:24.258Z,94.70
2017-12-16T01:15:52.580Z,94.60
2017-12-16T01:18:21.017Z,94.60
2017-12-16T01:20:49.480Z,94.50
2017-12-16T01:23:18.597Z,94.50
2017-12-16T01:25:46.934Z,94.50
2017-12-16T01:28:16.051Z,94.60
2017-12-16T01:30:45.197Z,94.50
2017-12-16T01:33:13.644Z,94.50
2017-12-16T01:35:54.113Z,94.50
2017-12-16T01:38:34.187Z,94.60
2017-12-16T01:41:02.550Z,94.50
2017-12-16T01:43:31.537Z,94.50
2017-12-16T01:45:59.872Z,94.60
2017-12-16T01:48:28.232Z,94.70
2017-12-16T01:50:56.567Z,94.80
2017-12-16T01:53:24.907Z,94.90
2017-12-16T01:55:53.250Z,95.10
2017-12-16T01:58:21.864Z,95.20
2017-12-16T02:00:50.213Z,95.20
2017-12-16T02:03:18.570Z,95.10
2017-12-16T02:05:46.945Z,95.10
2017-12-16T02:08:16.027Z,95.50
2017-12-16T02:10:44.411Z,95.50
2017-12-16T02:13:12.761Z,95.80
2017-12-16T02:15:41.184Z,95.90
2017-12-16T02:18:09.578Z,96.30
2017-12-16T02:20:38.014Z,96.70
2017-12-16T02:23:06.429Z,97.00
2017-12-16T02:25:34.811Z,97.10
2017-12-16T02:28:03.160Z,97.20
2017-12-16T02:30:32.265Z,97.10
2017-12-16T02:33:01.368Z,97.10
2017-12-16T02:35:29.721Z,97.10
2017-12-16T02:37:58.824Z,97.30
2017-12-16T02:40:27.966Z,96.80
2017-12-16T02:42:56.330Z,96.80
2017-12-16T02:45:24.713Z,96.90
2017-12-16T02:47:53.085Z,96.70
2017-12-16T02:50:21.431Z,96.70
2017-12-16T02:52:50.574Z,96.40
2017-12-16T02:55:18.905Z,96.30
2017-12-16T02:57:48.018Z,96.20
2017-12-16T03:02:51.957Z,96.10
2017-12-16T03:05:20.343Z,96.10
2017-12-16T03:07:48.726Z,96.00
2017-12-16T03:10:17.060Z,95.90
2017-12-16T03:12:45.414Z,95.90
2017-12-16T03:15:14.080Z,95.80
2017-12-16T03:17:42.428Z,95.60
2017-12-16T03:20:10.805Z,95.30
2017-12-16T03:22:39.896Z,95.60
2017-12-16T03:25:09.132Z,95.80
2017-12-16T03:27:37.464Z,95.70
2017-12-16T03:30:06.574Z,95.60
2017-12-16T03:32:35.808Z,95.60
2017-12-16T03:35:04.147Z,95.60
2017-12-16T03:37:33.261Z,95.60
2017-12-16T03:40:01.647Z,95.60
2017-12-16T03:42:30.336Z,95.50
2017-12-16T03:44:58.967Z,95.50
2017-12-16T03:47:27.422Z,95.50
2017-12-16T03:49:55.759Z,95.60
2017-12-16T03:52:24.873Z,96.00
2017-12-16T03:54:53.237Z,96.00
2017-12-16T03:57:21.584Z,96.30
2017-12-16T03:59:49.948Z,96.40
2017-12-16T04:02:18.288Z,96.30
2017-12-16T04:04:46.637Z,96.40
2017-12-16T04:07:15.743Z,97.00
2017-12-16T04:09:44.853Z,97.30
2017-12-16T04:12:13.218Z,97.20
2017-12-16T04:14:42.336Z,97.50
2017-12-16T04:17:10.731Z,97.50
2017-12-16T04:19:39.068Z,97.40
2017-12-16T04:22:08.167Z,97.10
2017-12-16T04:24:37.292Z,96.90
2017-12-16T04:27:05.616Z,96.90
2017-12-16T04:29:34.061Z,96.70
2017-12-16T04:32:02.400Z,96.30
2017-12-16T04:34:31.600Z,96.00
2017-12-16T04:37:00.888Z,95.90
2017-12-16T04:39:30.007Z,96.00
2017-12-16T04:41:59.299Z,95.30
2017-12-16T04:44:27.654Z,95.40
2017-12-16T04:46:56.081Z,95.30
2017-12-16T04:49:24.456Z,95.20
2017-12-16T04:51:52.819Z,95.00
2017-12-16T04:54:21.220Z,94.90
2017-12-16T04:56:49.580Z,94.80
2017-12-16T04:59:17.947Z,94.40
2017-12-16T05:01:47.076Z,94.00
2017-12-16T05:04:15.555Z,94.00
2017-12-16T05:06:43.940Z,94.00
2017-12-16T05:09:12.275Z,93.80
2017-12-16T05:11:41.396Z,94.20
2017-12-16T05:14:09.733Z,93.90
2017-12-16T05:16:38.093Z,94.00
2017-12-16T05:19:06.420Z,94.10
2017-12-16T05:21:35.553Z,94.30
2017-12-16T05:24:03.891Z,94.30
2017-12-16T05:26:33.032Z,94.30
2017-12-16T05:29:01.476Z,94.20
2017-12-16T05:31:29.872Z,94.50
2017-12-16T05:33:58.215Z,94.80
2017-12-16T05:36:27.352Z,94.60
2017-12-16T05:38:56.147Z,94.50
2017-12-16T05:41:24.480Z,94.60
2017-12-16T05:43:53.609Z,94.70
2017-12-16T05:46:22.003Z,94.60
2017-12-16T05:48:50.376Z,94.60
2017-12-16T05:51:18.736Z,94.70
2017-12-16T05:53:47.867Z,94.80
2017-12-16T05:56:16.231Z,94.70
2017-12-16T05:58:44.667Z,94.60
2017-12-16T06:01:13.012Z,94.70
2017-12-16T06:03:41.354Z,94.70
2017-12-16T06:06:09.698Z,94.80
2017-12-16T06:08:38.124Z,94.70
2017-12-16T06:11:07.047Z,94.70
2017-12-16T06:13:35.501Z,94.80
2017-12-16T06:16:03.834Z,94.90
2017-12-16T06:18:32.939Z,94.80
2017-12-16T06:21:02.085Z,94.90
2017-12-16T06:23:30.421Z,94.60
2017-12-16T06:25:58.897Z,94.70
2017-12-16T06:28:27.219Z,94.70
2017-12-16T06:30:55.595Z,94.70
2017-12-16T06:33:24.037Z,94.70
2017-12-16T06:35:52.565Z,94.80
2017-12-16T06:38:20.915Z,94.70
2017-12-16T06:40:49.272Z,94.60
2017-12-16T06:43:17.829Z,94.60
2017-12-16T06:45:46.746Z,94.70
2017-12-16T06:48:15.471Z,94.60
2017-12-16T06:50:43.853Z,95.30
2017-12-16T06:53:12.188Z,95.40
2017-12-16T06:55:41.328Z,95.00
2017-12-16T06:58:09.872Z,94.60
2017-12-16T07:00:38.992Z,94.90
2017-12-16T07:03:07.339Z,94.90
2017-12-16T07:05:35.715Z,95.00
2017-12-16T07:08:04.364Z,95.20
2017-12-16T07:10:32.687Z,95.20
2017-12-16T07:13:01.798Z,95.20
2017-12-16T07:15:30.135Z,95.30
2017-12-16T07:17:58.487Z,95.20
2017-12-16T07:20:26.819Z,95.40
2017-12-16T07:22:55.927Z,95.40
2017-12-16T07:25:25.027Z,95.30
2017-12-16T07:27:54.131Z,95.40
2017-12-16T07:30:22.486Z,95.40
2017-12-16T07:32:50.830Z,95.30
2017-12-16T07:35:19.297Z,95.30
2017-12-16T07:37:47.775Z,95.30
2017-12-16T07:40:16.121Z,95.20
2017-12-16T07:42:45.425Z,95.40
2017-12-16T07:45:13.952Z,95.40
2017-12-16T07:47:42.533Z,95.60
2017-12-16T07:50:11.650Z,95.70
2017-12-16T07:52:40.009Z,95.70
2017-12-16T07:55:08.357Z,95.90
2017-12-16T07:57:36.688Z,95.90
2017-12-16T08:00:05.030Z,95.90
2017-12-16T08:02:33.570Z,95.80
2017-12-16T08:05:01.910Z,95.90
2017-12-16T08:07:30.263Z,96.00
2017-12-16T08:09:58.620Z,95.80
2017-12-16T08:12:27.054Z,95.70
2017-12-16T08:14:55.448Z,95.80
2017-12-16T08:17:23.778Z,95.60
2017-12-16T08:19:52.164Z,95.40
2017-12-16T08:22:20.541Z,95.20
2017-12-16T08:24:48.913Z,95.30
2017-12-16T08:27:17.268Z,95.40
2017-12-16T08:29:46.370Z,95.30
2017-12-16T08:32:14.712Z,95.30
2017-12-16T08:34:43.076Z,94.70
2017-12-16T08:37:11.415Z,94.70
2017-12-16T09:21:02.180Z,92.50
2017-12-16T09:23:30.692Z,92.10
2017-12-16T09:25:59.030Z,92.70
2017-12-16T09:28:27.359Z,92.50
2017-12-16T09:30:55.819Z,92.80
2017-12-16T09:33:24.154Z,93.10
2017-12-16T09:35:52.500Z,93.00
2017-12-16T09:38:21.036Z,93.10
2017-12-16T09:40:49.387Z,93.30
2017-12-16T09:43:17.760Z,93.60
2017-12-16T09:45:46.092Z,93.50
2017-12-16T09:48:15.203Z,93.40
2017-12-16T09:50:43.593Z,93.80
2017-12-16T09:53:12.688Z,93.20
2017-12-16T09:55:41.027Z,93.20
2017-12-16T09:58:09.463Z,93.20
2017-12-16T10:00:37.809Z,92.50
2017-12-16T10:03:06.924Z,92.40
2017-12-16T10:05:35.380Z,92.30
2017-12-16T10:08:04.475Z,92.60
2017-12-16T10:10:32.828Z,92.50
2017-12-16T10:13:01.176Z,92.10
2017-12-16T10:15:29.507Z,91.70
2017-12-16T10:17:58.625Z,91.70
2017-12-16T10:20:26.969Z,91.60
2017-12-16T10:22:55.482Z,92.20
2017-12-16T10:25:23.871Z,92.20
2017-12-16T10:27:52.228Z,92.20
2017-12-16T10:30:21.343Z,92.40
2017-12-16T10:32:49.670Z,92.40
2017-12-16T10:35:18.036Z,92.30
2017-12-16T10:37:46.382Z,92.00
2017-12-16T10:40:14.721Z,91.90
2017-12-16T10:42:43.921Z,92.20
2017-12-16T10:45:13.056Z,92.10
2017-12-16T10:47:41.399Z,92.10
2017-12-16T10:50:10.515Z,92.10
2017-12-16T10:52:38.879Z,91.70
2017-12-16T10:55:08.076Z,91.60
2017-12-16T10:57:37.214Z,91.80
2017-12-16T11:00:05.591Z,91.70
2017-12-16T11:02:34.166Z,91.80
2017-12-16T11:05:02.497Z,91.80
2017-12-16T11:07:30.829Z,91.60
2017-12-16T11:09:59.203Z,91.80
2017-12-16T11:12:27.541Z,91.80
2017-12-16T11:14:56.652Z,91.90
2017-12-16T11:17:25.007Z,91.80
2017-12-16T11:19:53.438Z,91.90
2017-12-16T11:22:21.794Z,91.50
2017-12-16T11:24:50.219Z,91.50
2017-12-16T11:27:18.698Z,91.50
2017-12-16T11:29:47.043Z,91.60
2017-12-16T11:32:15.379Z,91.40
2017-12-16T11:34:43.713Z,91.10
2017-12-16T11:37:12.090Z,91.40
2017-12-16T11:39:41.185Z,90.90
2017-12-16T11:42:09.567Z,90.90
2017-12-16T11:44:37.929Z,90.80
2017-12-16T11:47:06.281Z,90.90
2017-12-16T11:49:34.665Z,90.60
2017-12-16T11:52:03.844Z,90.20
2017-12-16T11:54:32.304Z,90.20
2017-12-16T11:57:00.645Z,90.20
2017-12-16T11:59:28.986Z,90.10
2017-12-16T12:01:57.441Z,90.10
2017-12-16T12:04:25.781Z,90.20
2017-12-16T12:06:54.888Z,90.10
2017-12-16T12:09:23.242Z,90.10
2017-12-16T12:11:52.474Z,88.60
2017-12-16T12:14:20.820Z,88.60
2017-12-16T12:16:49.913Z,88.20
2017-12-16T12:19:19.980Z,88.90
2017-12-16T12:21:48.290Z,88.80
2017-12-16T12:24:16.645Z,88.90
2017-12-16T12:26:44.989Z,89.50
2017-12-16T12:29:13.347Z,89.60
2017-12-16T12:31:42.452Z,90.00
2017-12-16T12:34:11.554Z,90.00
2017-12-16T12:36:39.913Z,90.00
2017-12-16T12:39:08.220Z,90.10
2017-12-16T12:41:36.569Z,90.20
2017-12-16T12:44:04.911Z,90.30
2017-12-16T12:46:33.264Z,90.20
2017-12-16T12:49:01.595Z,90.40
2017-12-16T12:51:29.931Z,90.40
2017-12-16T12:53:58.263Z,90.60
2017-12-16T12:56:26.605Z,90.70
2017-12-16T12:58:54.956Z,90.40
2017-12-16T13:01:23.294Z,90.50
2017-12-16T13:03:51.804Z,90.60
2017-12-16T13:06:20.885Z,90.50
2017-12-16T13:08:49.988Z,90.40
2017-12-16T13:11:19.222Z,90.50
2017-12-16T13:13:47.550Z,90.50
2017-12-16T13:16:16.676Z,90.00
2017-12-16T13:18:45.008Z,90.00
2017-12-16T13:21:13.455Z,90.00
2017-12-16T13:23:41.926Z,90.10
2017-12-16T13:26:10.258Z,90.00
2017-12-16T13:28:38.614Z,90.20
2017-12-16T13:31:06.971Z,90.00
2017-12-16T13:33:35.645Z,90.10
2017-12-16T13:36:03.984Z,90.10
2017-12-16T13:38:33.227Z,90.10
2017-12-16T13:41:01.570Z,90.10
2017-12-16T13:43:30.696Z,90.10
2017-12-16T13:45:59.045Z,90.10
2017-12-16T13:48:28.155Z,90.00
2017-12-16T13:50:56.561Z,90.00
2017-12-16T13:53:24.932Z,89.90
2017-12-16T13:55:53.393Z,90.10
2017-12-16T13:58:22.672Z,89.50
2017-12-16T14:00:51.261Z,89.50
2017-12-16T14:03:19.592Z,89.50
2017-12-16T14:05:47.943Z,89.70
2017-12-16T14:08:16.335Z,89.90
2017-12-16T14:10:44.664Z,89.90
2017-12-16T14:13:13.017Z,90.00
2017-12-16T14:15:41.342Z,90.00
2017-12-16T14:18:09.771Z,90.10
2017-12-16T14:20:38.112Z,90.30
2017-12-16T14:23:06.447Z,90.30
2017-12-16T14:25:34.788Z,90.10
2017-12-16T14:28:03.141Z,90.20
2017-12-16T14:30:31.546Z,90.30
2017-12-16T14:32:59.908Z,90.10
2017-12-16T14:35:28.984Z,90.00
2017-12-16T14:37:57.320Z,90.00
2017-12-16T14:40:25.644Z,89.60
2017-12-16T14:42:54.757Z,89.80
2017-12-16T14:45:23.078Z,89.80
2017-12-16T14:47:51.428Z,90.00
2017-12-16T14:50:19.769Z,90.10
2017-12-16T14:52:48.867Z,90.60
2017-12-16T14:55:18.064Z,90.70
2017-12-16T14:57:46.395Z,90.30
2017-12-16T15:00:14.975Z,90.40
2017-12-16T15:02:43.295Z,90.50
2017-12-16T15:05:11.629Z,90.30
2017-12-16T15:07:39.977Z,90.40
2017-12-16T15:10:08.400Z,90.20
2017-12-16T15:12:36.776Z,90.30
2017-12-16T15:15:05.100Z,90.40
2017-12-16T15:17:34.942Z,90.50
2017-12-16T15:20:03.326Z,90.40
2017-12-16T15:22:31.701Z,90.30
2017-12-16T15:25:00.033Z,90.40
2017-12-16T15:27:28.411Z,90.40
2017-12-16T15:29:56.801Z,90.60
2017-12-16T15:32:25.152Z,90.70
2017-12-16T15:34:53.595Z,90.70
2017-12-16T15:37:21.964Z,90.50
2017-12-16T15:39:50.287Z,90.50
2017-12-16T15:42:18.638Z,90.60
2017-12-16T15:44:47.015Z,90.50
2017-12-16T15:47:15.355Z,90.60
2017-12-16T15:49:44.466Z,91.00
2017-12-16T15:52:13.728Z,90.70
2017-12-16T15:54:42.068Z,90.70
2017-12-16T15:57:10.427Z,90.80
2017-12-16T15:59:39.699Z,91.00
2017-12-16T16:02:08.028Z,91.00
2017-12-16T16:04:36.372Z,91.00
2017-12-16T16:07:05.520Z,91.30
2017-12-16T16:09:33.873Z,91.10
2017-12-16T16:12:02.262Z,91.20
2017-12-16T16:14:30.590Z,91.20
2017-12-16T16:16:58.927Z,91.10
2017-12-16T16:19:27.266Z,91.10
2017-12-16T16:21:56.470Z,90.90
2017-12-16T16:24:25.568Z,91.00
2017-12-16T16:26:54.689Z,91.00
2017-12-16T16:29:23.096Z,91.00
2017-12-16T16:31:51.530Z,91.00
2017-12-16T16:34:19.813Z,90.90
2017-12-16T16:36:48.245Z,90.70
2017-12-16T16:39:16.607Z,90.90
2017-12-16T16:41:44.929Z,91.00
2017-12-16T16:44:14.053Z,91.10
2017-12-16T16:46:42.436Z,91.00
2017-12-16T16:49:11.041Z,91.20
2017-12-16T16:51:39.395Z,91.20
2017-12-16T16:54:07.716Z,91.40
2017-12-16T16:56:36.147Z,91.50
2017-12-16T16:59:04.719Z,91.60
2017-12-16T17:01:33.831Z,92.00
2017-12-16T17:04:02.160Z,91.90
2017-12-16T17:06:30.491Z,92.20
2017-12-16T17:08:58.830Z,92.20
2017-12-16T17:11:27.203Z,92.50
2017-12-16T17:13:55.553Z,92.60
2017-12-16T17:16:23.893Z,92.70
2017-12-16T17:18:52.598Z,92.80
2017-12-16T17:21:20.914Z,92.90
2017-12-16T17:23:49.246Z,93.00
2017-12-16T17:26:17.602Z,93.00
2017-12-16T17:28:46.691Z,92.90
2017-12-16T17:31:15.800Z,93.10
2017-12-16T17:33:44.894Z,93.10
2017-12-16T17:36:13.265Z,93.00
2017-12-16T17:38:42.395Z,93.30
2017-12-16T17:41:11.487Z,93.20
2017-12-16T17:43:39.842Z,92.70
2017-12-16T17:46:08.937Z,92.40
2017-12-16T17:48:38.066Z,92.50
2017-12-16T17:51:06.559Z,92.50
2017-12-16T17:53:34.925Z,92.50
2017-12-16T17:56:03.242Z,92.60
2017-12-16T17:58:31.654Z,92.60
2017-12-16T18:01:00.148Z,92.60
2017-12-16T18:03:29.363Z,92.70
2017-12-16T18:05:58.446Z,92.70
2017-12-16T18:08:26.776Z,92.70
2017-12-16T18:10:55.097Z,92.80
2017-12-16T18:13:23.677Z,92.70
2017-12-16T18:15:52.771Z,92.70
2017-12-16T18:18:21.120Z,92.70
2017-12-16T18:20:49.509Z,92.50
2017-12-16T18:23:18.870Z,92.50
2017-12-16T18:25:47.189Z,92.60
2017-12-16T18:28:15.548Z,92.70
2017-12-16T18:30:43.912Z,92.60
2017-12-16T18:33:12.343Z,92.70
2017-12-16T18:35:40.799Z,92.60
2017-12-16T18:38:09.185Z,92.60
2017-12-16T18:40:37.540Z,92.80
2017-12-16T18:43:05.891Z,92.90
2017-12-16T18:45:34.235Z,93.00
2017-12-16T18:48:02.634Z,93.10
2017-12-16T18:50:31.250Z,93.20
2017-12-16T18:52:59.634Z,93.30
2017-12-16T18:55:27.973Z,93.10
2017-12-16T18:57:56.839Z,93.10
2017-12-16T19:00:25.350Z,93.20
2017-12-16T19:02:54.452Z,92.90
2017-12-16T19:05:22.801Z,92.90
2017-12-16T19:07:51.901Z,92.70
2017-12-16T19:10:20.256Z,92.30
2017-12-16T19:12:48.577Z,92.40
2017-12-16T19:15:17.361Z,92.30
2017-12-16T19:17:45.825Z,92.10
2017-12-16T19:20:14.264Z,92.40
2017-12-16T19:22:42.616Z,92.70
2017-12-16T19:25:11.107Z,92.80
2017-12-16T19:27:39.448Z,93.10
2017-12-16T19:30:09.184Z,93.50
2017-12-16T19:32:37.554Z,93.20
2017-12-16T19:35:05.884Z,92.90
2017-12-16T19:37:34.262Z,92.80
2017-12-16T19:40:02.586Z,92.90
2017-12-16T19:42:30.930Z,92.80
2017-12-16T19:44:59.304Z,92.80
2017-12-16T19:47:27.658Z,93.00
2017-12-16T19:49:56.014Z,93.20
2017-12-16T19:52:24.371Z,93.40
2017-12-16T19:54:52.742Z,93.70
2017-12-16T19:57:21.106Z,93.80
2017-12-16T19:59:49.752Z,94.10
2017-12-16T20:02:18.440Z,94.20
2017-12-16T20:04:47.227Z,94.30
2017-12-16T20:07:15.915Z,94.30
2017-12-16T20:09:44.609Z,94.50
2017-12-16T20:12:13.492Z,94.60
2017-12-16T20:14:42.180Z,94.90
2017-12-16T20:17:10.866Z,94.90
2017-12-16T20:19:40.595Z,95.40
2017-12-16T20:22:09.266Z,95.20
2017-12-16T20:24:37.953Z,95.50
2017-12-16T20:27:06.840Z,95.20
2017-12-16T20:29:35.739Z,95.20
2017-12-16T20:32:04.727Z,95.10
2017-12-16T20:34:33.516Z,95.10
2017-12-16T20:37:03.030Z,95.00
2017-12-16T20:39:32.034Z,94.80
2017-12-16T20:42:00.903Z,94.70
2017-12-16T20:44:29.593Z,94.60
2017-12-16T20:46:58.378Z,94.50
2017-12-16T20:49:27.174Z,94.50
2017-12-16T20:51:55.956Z,94.40
2017-12-16T20:54:25.978Z,94.10
2017-12-16T20:56:55.480Z,94.10
2017-12-16T20:59:24.288Z,94.00
2017-12-16T21:01:53.764Z,93.90
2017-12-16T21:04:22.770Z,93.90
2017-12-16T21:06:51.765Z,93.80
2017-12-16T21:09:20.966Z,93.70
2017-12-16T21:11:49.855Z,93.60
2017-12-16T21:14:18.758Z,93.70
2017-12-16T21:16:47.531Z,93.70
2017-12-16T21:19:16.321Z,93.60
2017-12-16T21:21:45.211Z,93.40
2017-12-16T21:24:14.212Z,93.50
2017-12-16T21:26:42.651Z,93.20
2017-12-16T21:29:11.820Z,93.10
2017-12-16T21:31:40.175Z,93.10
2017-12-16T21:34:08.585Z,93.10
2017-12-16T21:36:37.071Z,93.00
2017-12-16T21:39:05.498Z,93.20
2017-12-16T21:41:33.885Z,93.20
2017-12-16T21:44:02.253Z,93.20
2017-12-16T21:46:30.790Z,93.30
2017-12-16T21:48:59.744Z,93.40
2017-12-16T21:51:28.089Z,93.50
2017-12-16T21:53:57.205Z,94.10
2017-12-16T21:56:25.570Z,94.00
2017-12-16T21:58:53.915Z,94.30
2017-12-16T22:01:22.285Z,94.50
2017-12-16T22:03:50.688Z,94.40
2017-12-16T22:06:19.798Z,94.30
2017-12-16T22:08:48.184Z,94.30
2017-12-16T22:11:16.526Z,94.50
2017-12-16T22:13:44.960Z,94.50
2017-12-16T22:16:13.443Z,94.50
2017-12-16T22:18:41.926Z,94.60
2017-12-16T22:21:10.279Z,94.50
2017-12-16T22:23:38.615Z,94.30
2017-12-16T22:26:06.947Z,94.40
2017-12-16T22:28:35.341Z,94.40
2017-12-16T22:31:03.700Z,94.40
2017-12-16T22:33:32.044Z,94.60
2017-12-16T22:36:00.485Z,94.50
2017-12-16T22:38:28.824Z,94.20
2017-12-16T22:40:57.954Z,94.30
2017-12-16T22:43:26.303Z,94.20
2017-12-16T22:45:55.395Z,94.40
2017-12-16T22:48:24.489Z,94.60
2017-12-16T22:50:53.626Z,94.60
2017-12-16T22:53:21.957Z,94.60
2017-12-16T22:55:51.039Z,94.90
2017-12-16T22:58:19.375Z,94.70
2017-12-16T23:00:47.740Z,94.40
2017-12-16T23:03:16.076Z,94.30
2017-12-16T23:05:44.631Z,94.40
2017-12-16T23:08:12.985Z,94.30
2017-12-16T23:10:41.314Z,94.20
2017-12-16T23:13:09.668Z,94.10
2017-12-16T23:15:38.006Z,94.20
2017-12-16T23:18:06.352Z,94.20
2017-12-16T23:20:34.767Z,94.20
2017-12-16T23:23:03.251Z,94.30
2017-12-16T23:25:31.592Z,94.50
2017-12-16T23:27:59.929Z,94.60
2017-12-16T23:30:28.263Z,94.60
2017-12-16T23:32:57.365Z,94.80
2017-12-16T23:35:26.487Z,94.80
2017-12-16T23:37:55.724Z,94.80
2017-12-16T23:40:24.059Z,94.80
2017-12-16T23:42:52.394Z,94.80
2017-12-16T23:45:20.822Z,94.80
2017-12-16T23:47:49.160Z,94.70
2017-12-16T23:50:18.300Z,94.70
2017-12-16T23:52:46.652Z,94.70
2017-12-16T23:55:14.976Z,94.50
2017-12-16T23:57:43.652Z,94.60
